createdAt,value
2022-12-04T00:00:52.443Z,100956.84
2022-12-04T00:03:19.244Z,100958.91
2022-12-04T00:05:46.094Z,100963.63
2022-12-04T00:08:12.977Z,100968.09
2022-12-04T00:10:44.113Z,100965.53
2022-12-04T00:13:10.938Z,100962.41
2022-12-04T00:15:41.340Z,100968.16
2022-12-04T00:18:08.101Z,100975.78
2022-12-04T00:20:35.310Z,100976.06
2022-12-04T00:23:02.016Z,100971.38
2022-12-04T00:25:30.759Z,100968.94
2022-12-04T00:27:57.624Z,100978.47
2022-12-04T00:30:24.406Z,100970.06
2022-12-04T00:32:51.146Z,100964.06
2022-12-04T00:35:18.001Z,100966.56
2022-12-04T00:37:44.708Z,100969.06
2022-12-04T00:40:11.811Z,100966.34
2022-12-04T00:42:38.590Z,100981.28
2022-12-04T00:45:05.539Z,100972.84
2022-12-04T00:47:32.303Z,100962.28
2022-12-04T00:49:59.068Z,100957.38
2022-12-04T00:52:25.864Z,100943.62
2022-12-04T00:54:52.641Z,100952.09
2022-12-04T00:57:19.420Z,100957.09
2022-12-04T00:59:46.125Z,100961.78
2022-12-04T01:02:12.895Z,100957.16
2022-12-04T01:04:39.666Z,100966.28
2022-12-04T01:07:06.507Z,100960.25
2022-12-04T01:09:33.634Z,100959.91
2022-12-04T01:12:00.394Z,100966.78
2022-12-04T01:14:27.191Z,100954.91
2022-12-04T01:16:54.278Z,100953.69
2022-12-04T01:19:21.104Z,100947.88
2022-12-04T01:21:47.832Z,100961.41
2022-12-04T01:24:14.631Z,100953.69
2022-12-04T01:26:41.376Z,100967.72
2022-12-04T01:29:08.099Z,100966.09
2022-12-04T01:31:34.849Z,100966.28
2022-12-04T01:34:01.736Z,100956.53
2022-12-04T01:36:28.891Z,100944.28
2022-12-04T01:38:55.970Z,100948.66
2022-12-04T01:41:26.951Z,100932.03
2022-12-04T01:44:09.091Z,100926.06
2022-12-04T01:46:35.864Z,100932.91
2022-12-04T01:49:03.202Z,100927.09
2022-12-04T01:51:41.312Z,100920.97
2022-12-04T01:54:11.419Z,100921.72
2022-12-04T01:56:52.626Z,100916.06
2022-12-04T01:59:21.548Z,100908.50
2022-12-04T02:01:56.402Z,100908.56
2022-12-04T02:04:23.378Z,100911.84
2022-12-04T02:06:50.191Z,100905.84
2022-12-04T02:09:20.459Z,100912.56
2022-12-04T02:12:03.593Z,100912.28
2022-12-04T02:14:30.334Z,100914.66
2022-12-04T02:17:04.974Z,100904.91
2022-12-04T02:19:49.563Z,100903.91
2022-12-04T02:22:35.200Z,100896.50
2022-12-04T02:25:16.620Z,100893.59
2022-12-04T02:28:06.636Z,100893.72
2022-12-04T02:30:36.127Z,100893.56
2022-12-04T02:33:03.138Z,100886.31
2022-12-04T02:35:41.296Z,100888.31
2022-12-04T02:38:14.255Z,100896.66
2022-12-04T02:40:59.653Z,100897.69
2022-12-04T02:43:46.379Z,100911.44
2022-12-04T02:46:27.605Z,100906.50
2022-12-04T02:48:57.212Z,100906.69
2022-12-04T02:51:26.820Z,100907.31
2022-12-04T02:53:57.271Z,100906.19
2022-12-04T02:56:26.863Z,100892.22
2022-12-04T02:58:59.027Z,100899.09
2022-12-04T03:01:29.799Z,100914.25
2022-12-04T03:03:56.645Z,100911.31
2022-12-04T03:06:25.066Z,100890.66
2022-12-04T03:08:55.919Z,100881.06
2022-12-04T03:11:22.918Z,100882.91
2022-12-04T03:14:00.346Z,100897.75
2022-12-04T03:16:33.088Z,100882.59
2022-12-04T03:19:04.677Z,100900.38
2022-12-04T03:21:38.237Z,100912.38
2022-12-04T03:24:14.152Z,100910.31
2022-12-04T03:26:43.801Z,100901.47
2022-12-04T03:29:22.898Z,100899.09
2022-12-04T03:31:51.917Z,100909.97
2022-12-04T03:34:27.085Z,100909.97
2022-12-04T03:36:59.180Z,100910.97
2022-12-04T03:39:39.283Z,100913.91
2022-12-04T03:42:10.855Z,100907.84
2022-12-04T03:44:40.390Z,100921.25
2022-12-04T03:47:25.948Z,100923.44
2022-12-04T03:49:55.842Z,100924.66
2022-12-04T03:52:26.234Z,100919.13
2022-12-04T03:54:57.817Z,100930.97
2022-12-04T03:57:27.711Z,100929.09
2022-12-04T04:00:06.154Z,100917.53
2022-12-04T04:02:34.922Z,100911.25
2022-12-04T04:05:02.933Z,100915.50
2022-12-04T04:07:35.877Z,100905.44
2022-12-04T04:10:06.149Z,100901.13
2022-12-04T04:12:37.024Z,100910.34
2022-12-04T04:15:28.488Z,100917.09
2022-12-04T04:18:16.334Z,100921.91
2022-12-04T04:21:21.747Z,100924.56
2022-12-04T04:24:10.374Z,100915.84
2022-12-04T04:26:40.745Z,100929.13
2022-12-04T04:29:09.082Z,100914.50
2022-12-04T04:31:53.039Z,100907.31
2022-12-04T04:34:24.933Z,100904.84
2022-12-04T04:37:01.031Z,100904.87
2022-12-04T04:39:33.414Z,100904.41
2022-12-04T04:42:06.817Z,100900.34
2022-12-04T04:44:39.718Z,100901.66
2022-12-04T04:47:07.646Z,100906.28
2022-12-04T04:49:35.256Z,100898.50
2022-12-04T04:52:02.680Z,100893.22
2022-12-04T04:54:31.370Z,100891.97
2022-12-04T04:56:58.137Z,100910.03
2022-12-04T04:59:24.930Z,100904.00
2022-12-04T05:01:52.046Z,100896.72
2022-12-04T05:04:18.929Z,100884.50
2022-12-04T05:06:45.707Z,100890.94
2022-12-04T05:09:12.500Z,100895.72
2022-12-04T05:11:39.211Z,100904.81
2022-12-04T05:14:06.439Z,100898.69
2022-12-04T05:16:33.515Z,100900.41
2022-12-04T05:19:18.828Z,100903.91
2022-12-04T05:21:45.567Z,100899.38
2022-12-04T05:24:12.313Z,100891.53
2022-12-04T05:26:39.116Z,100875.41
2022-12-04T05:29:06.065Z,100887.25
2022-12-04T05:31:32.976Z,100882.16
2022-12-04T05:33:59.793Z,100903.22
2022-12-04T05:36:26.568Z,100896.09
2022-12-04T05:38:53.307Z,100886.16
2022-12-04T05:41:20.060Z,100887.31
2022-12-04T05:43:46.947Z,100887.31
2022-12-04T05:46:13.758Z,100894.56
2022-12-04T05:48:40.581Z,100902.72
2022-12-04T05:51:08.256Z,100900.78
2022-12-04T05:53:35.144Z,100906.94
2022-12-04T05:56:02.753Z,100917.59
2022-12-04T05:58:29.653Z,100906.56
2022-12-04T06:00:56.380Z,100898.59
2022-12-04T06:03:23.331Z,100910.66
2022-12-04T06:05:50.196Z,100913.16
2022-12-04T06:08:17.146Z,100926.16
2022-12-04T06:10:43.929Z,100929.13
2022-12-04T06:13:10.668Z,100918.91
2022-12-04T06:15:40.618Z,100902.63
2022-12-04T06:18:07.769Z,100911.44
2022-12-04T06:20:35.119Z,100920.78
2022-12-04T06:23:01.970Z,100935.16
2022-12-04T06:25:28.937Z,100911.72
2022-12-04T06:27:55.757Z,100913.25
2022-12-04T06:30:22.618Z,100906.44
2022-12-04T06:32:49.398Z,100911.63
2022-12-04T06:35:16.515Z,100905.69
2022-12-04T06:37:43.319Z,100908.56
2022-12-04T06:40:10.324Z,100913.75
2022-12-04T06:42:37.162Z,100905.50
2022-12-04T06:45:04.449Z,100908.50
2022-12-04T06:47:31.153Z,100904.38
2022-12-04T06:49:58.517Z,100903.69
2022-12-04T06:52:25.425Z,100891.84
2022-12-04T06:54:52.148Z,100889.44
2022-12-04T06:57:18.892Z,100889.69
2022-12-04T06:59:45.884Z,100900.47
2022-12-04T07:02:12.687Z,100909.59
2022-12-04T07:04:39.464Z,100913.22
2022-12-04T07:07:08.415Z,100921.37
2022-12-04T07:09:35.132Z,100916.50
2022-12-04T07:12:01.857Z,100906.84
2022-12-04T07:14:28.613Z,100914.06
2022-12-04T07:16:55.413Z,100909.19
2022-12-04T07:19:22.252Z,100903.94
2022-12-04T07:21:48.956Z,100910.97
2022-12-04T07:24:17.032Z,100918.84
2022-12-04T07:26:43.882Z,100911.66
2022-12-04T07:29:10.984Z,100914.16
2022-12-04T07:31:38.207Z,100925.19
2022-12-04T07:34:05.016Z,100925.03
2022-12-04T07:36:31.752Z,100925.56
2022-12-04T07:38:58.460Z,100925.37
2022-12-04T07:41:25.190Z,100939.25
2022-12-04T07:43:51.962Z,100945.13
2022-12-04T07:46:20.142Z,100938.19
2022-12-04T07:48:47.004Z,100937.44
2022-12-04T07:51:18.836Z,100944.66
2022-12-04T07:53:46.304Z,100936.06
2022-12-04T07:56:13.508Z,100929.34
2022-12-04T07:58:42.003Z,100923.16
2022-12-04T08:01:13.527Z,100938.09
2022-12-04T08:03:47.140Z,100941.28
2022-12-04T08:06:15.391Z,100944.25
2022-12-04T08:08:42.428Z,100945.53
2022-12-04T08:11:10.181Z,100937.78
2022-12-04T08:13:37.475Z,100938.22
2022-12-04T08:16:04.885Z,100926.59
2022-12-04T08:18:32.024Z,100924.44
2022-12-04T08:21:06.297Z,100917.72
2022-12-04T08:23:33.350Z,100924.03
2022-12-04T08:26:00.899Z,100921.63
2022-12-04T08:28:28.039Z,100911.75
2022-12-04T08:30:54.980Z,100912.63
2022-12-04T08:33:21.961Z,100918.09
2022-12-04T08:35:48.853Z,100934.59
2022-12-04T08:38:15.747Z,100944.84
2022-12-04T08:40:42.782Z,100941.28
2022-12-04T08:43:09.548Z,100924.78
2022-12-04T08:45:36.256Z,100936.72
2022-12-04T08:48:02.999Z,100936.56
2022-12-04T08:50:29.788Z,100933.97
2022-12-04T08:52:56.494Z,100933.28
2022-12-04T08:55:23.473Z,100952.47
2022-12-04T08:57:53.512Z,100961.53
2022-12-04T09:00:20.465Z,100954.81
2022-12-04T09:02:49.046Z,100949.75
2022-12-04T09:05:15.958Z,100945.78
2022-12-04T09:07:42.733Z,100946.88
2022-12-04T09:10:09.864Z,100945.28
2022-12-04T09:12:36.613Z,100940.75
2022-12-04T09:15:03.557Z,100942.56
2022-12-04T09:17:30.504Z,100940.12
2022-12-04T09:20:00.985Z,100927.38
2022-12-04T09:22:45.624Z,100935.59
2022-12-04T09:25:15.143Z,100936.09
2022-12-04T09:27:41.989Z,100930.19
2022-12-04T09:30:09.431Z,100933.88
2022-12-04T09:32:36.550Z,100944.50
2022-12-04T09:35:03.953Z,100935.78
2022-12-04T09:37:30.689Z,100937.28
2022-12-04T09:39:57.643Z,100932.16
2022-12-04T09:42:30.526Z,100937.78
2022-12-04T09:45:04.231Z,100930.06
2022-12-04T09:47:36.579Z,100935.44
2022-12-04T09:50:12.467Z,100928.97
2022-12-04T09:52:42.180Z,100929.88
2022-12-04T09:55:13.113Z,100932.09
2022-12-04T09:57:45.396Z,100934.41
2022-12-04T10:00:13.786Z,100933.47
2022-12-04T10:02:42.002Z,100930.25
2022-12-04T10:05:16.372Z,100934.91
2022-12-04T10:07:52.481Z,100922.03
2022-12-04T10:10:38.102Z,100916.28
2022-12-04T10:13:07.858Z,100919.50
2022-12-04T10:15:57.990Z,100924.31
2022-12-04T10:18:30.992Z,100912.06
2022-12-04T10:20:57.699Z,100914.09
2022-12-04T10:23:38.555Z,100916.81
2022-12-04T10:26:09.562Z,100912.94
2022-12-04T10:28:39.424Z,100920.00
2022-12-04T10:31:10.412Z,100904.78
2022-12-04T10:33:38.726Z,100897.25
2022-12-04T10:36:05.677Z,100892.56
2022-12-04T10:38:54.099Z,100891.88
2022-12-04T10:41:39.834Z,100880.59
2022-12-04T10:44:06.678Z,100883.03
2022-12-04T10:46:34.988Z,100891.03
2022-12-04T10:49:09.819Z,100885.47
2022-12-04T10:51:39.593Z,100887.44
2022-12-04T10:54:25.110Z,100882.34
2022-12-04T10:56:53.991Z,100888.37
2022-12-04T10:59:20.952Z,100870.47
2022-12-04T11:01:48.081Z,100869.94
2022-12-04T11:04:23.994Z,100864.31
2022-12-04T11:06:52.061Z,100865.25
2022-12-04T11:09:25.159Z,100865.28
2022-12-04T11:11:52.823Z,100848.91
2022-12-04T11:14:23.559Z,100850.09
2022-12-04T11:16:59.959Z,100828.69
2022-12-04T11:19:28.338Z,100827.03
2022-12-04T11:21:56.617Z,100817.44
2022-12-04T11:24:24.828Z,100825.31
2022-12-04T11:26:52.615Z,100824.06
2022-12-04T11:29:20.663Z,100833.81
2022-12-04T11:31:48.802Z,100834.19
2022-12-04T11:34:19.071Z,100835.62
2022-12-04T11:36:50.728Z,100843.91
2022-12-04T11:39:19.488Z,100843.78
2022-12-04T11:41:46.386Z,100846.53
2022-12-04T11:44:25.564Z,100838.19
2022-12-04T11:46:54.234Z,100846.97
2022-12-04T11:49:25.196Z,100832.06
2022-12-04T11:52:18.416Z,100822.47
2022-12-04T11:54:57.209Z,100823.91
2022-12-04T11:57:30.604Z,100819.00
2022-12-04T12:00:02.886Z,100833.03
2022-12-04T12:02:29.791Z,100824.06
2022-12-04T12:05:02.829Z,100816.09
2022-12-04T12:07:30.748Z,100829.47
2022-12-04T12:09:57.758Z,100825.91
2022-12-04T12:12:47.841Z,100834.19
2022-12-04T12:15:32.428Z,100838.34
2022-12-04T12:18:04.916Z,100833.44
2022-12-04T12:20:38.718Z,100833.81
2022-12-04T12:23:11.431Z,100832.25
2022-12-04T12:25:38.119Z,100850.06
2022-12-04T12:28:04.917Z,100856.22
2022-12-04T12:30:39.505Z,100847.78
2022-12-04T12:33:08.938Z,100844.13
2022-12-04T12:35:43.302Z,100851.13
2022-12-04T12:38:22.337Z,100844.94
2022-12-04T12:40:52.718Z,100838.53
2022-12-04T12:43:37.206Z,100831.22
2022-12-04T12:46:10.849Z,100831.94
2022-12-04T12:48:43.437Z,100825.00
2022-12-04T12:51:30.474Z,100819.41
2022-12-04T12:54:02.240Z,100817.69
2022-12-04T12:56:36.243Z,100828.75
2022-12-04T12:59:04.618Z,100811.22
2022-12-04T13:01:31.474Z,100806.47
2022-12-04T13:04:13.573Z,100803.63
2022-12-04T13:06:42.181Z,100812.00
2022-12-04T13:09:27.824Z,100823.31
2022-12-04T13:11:58.970Z,100815.88
2022-12-04T13:14:25.681Z,100810.25
2022-12-04T13:16:54.955Z,100812.53
2022-12-04T13:19:27.081Z,100815.06
2022-12-04T13:22:01.193Z,100813.88
2022-12-04T13:24:54.260Z,100817.41
2022-12-04T13:27:41.323Z,100822.28
2022-12-04T13:30:14.755Z,100824.59
2022-12-04T13:32:41.700Z,100823.13
2022-12-04T13:35:20.613Z,100828.66
2022-12-04T13:37:47.235Z,100829.03
2022-12-04T13:40:26.759Z,100834.91
2022-12-04T13:42:53.698Z,100832.19
2022-12-04T13:45:27.894Z,100820.13
2022-12-04T13:48:02.224Z,100826.25
2022-12-04T13:50:30.796Z,100826.34
2022-12-04T13:52:58.175Z,100823.81
2022-12-04T13:55:24.855Z,100817.81
2022-12-04T13:57:55.948Z,100814.50
2022-12-04T14:00:27.761Z,100810.81
2022-12-04T14:02:56.135Z,100816.00
2022-12-04T14:05:27.356Z,100807.75
2022-12-04T14:08:05.660Z,100810.25
2022-12-04T14:10:38.956Z,100810.34
2022-12-04T14:13:07.725Z,100813.28
2022-12-04T14:15:36.356Z,100825.81
2022-12-04T14:18:12.782Z,100826.09
2022-12-04T14:20:40.390Z,100815.56
2022-12-04T14:23:16.610Z,100817.44
2022-12-04T14:25:43.816Z,100812.56
2022-12-04T14:28:41.692Z,100820.72
2022-12-04T14:31:09.087Z,100827.88
2022-12-04T14:33:43.076Z,100838.44
2022-12-04T14:36:20.784Z,100840.22
2022-12-04T14:38:49.606Z,100841.81
2022-12-04T14:41:23.955Z,100836.47
2022-12-04T14:43:51.066Z,100837.06
2022-12-04T14:46:28.338Z,100829.72
2022-12-04T14:49:04.866Z,100829.09
2022-12-04T14:51:37.471Z,100824.56
2022-12-04T14:54:07.332Z,100842.38
2022-12-04T14:56:57.494Z,100832.50
2022-12-04T14:59:27.345Z,100833.63
2022-12-04T15:01:55.357Z,100839.50
2022-12-04T15:04:22.121Z,100829.69
2022-12-04T15:06:53.136Z,100841.38
2022-12-04T15:09:42.828Z,100838.09
2022-12-04T15:12:35.525Z,100835.88
2022-12-04T15:15:12.008Z,100840.94
2022-12-04T15:17:38.836Z,100846.63
2022-12-04T15:20:10.053Z,100841.03
2022-12-04T15:22:37.008Z,100842.94
2022-12-04T15:25:06.350Z,100839.03
2022-12-04T15:27:33.376Z,100850.28
2022-12-04T15:30:01.695Z,100852.75
2022-12-04T15:32:30.042Z,100836.75
2022-12-04T15:35:01.002Z,100836.91
2022-12-04T15:37:29.898Z,100830.81
2022-12-04T15:39:57.901Z,100829.41
2022-12-04T15:42:24.821Z,100828.41
2022-12-04T15:45:01.347Z,100827.88
2022-12-04T15:47:29.920Z,100822.12
2022-12-04T15:50:07.694Z,100823.75
2022-12-04T15:52:35.703Z,100816.97
2022-12-04T15:55:06.466Z,100821.44
2022-12-04T15:57:42.999Z,100819.56
2022-12-04T16:00:21.903Z,100824.09
2022-12-04T16:02:48.947Z,100820.88
2022-12-04T16:05:21.520Z,100820.13
2022-12-04T16:07:52.722Z,100826.09
2022-12-04T16:10:30.270Z,100830.53
2022-12-04T16:13:01.687Z,100824.69
2022-12-04T16:15:38.692Z,100829.03
2022-12-04T16:18:06.825Z,100824.19
2022-12-04T16:20:37.245Z,100817.47
2022-12-04T16:23:04.195Z,100827.59
2022-12-04T16:25:31.904Z,100822.44
2022-12-04T16:27:59.112Z,100816.56
2022-12-04T16:30:26.318Z,100822.16
2022-12-04T16:32:53.319Z,100826.31
2022-12-04T16:35:20.679Z,100819.16
2022-12-04T16:37:47.423Z,100838.00
2022-12-04T16:40:15.190Z,100835.66
2022-12-04T16:42:42.446Z,100835.06
2022-12-04T16:45:32.734Z,100835.53
2022-12-04T16:47:59.788Z,100848.41
2022-12-04T16:50:27.389Z,100851.25
2022-12-04T16:52:54.265Z,100856.72
2022-12-04T16:55:24.675Z,100853.81
2022-12-04T16:57:51.604Z,100840.37
2022-12-04T17:00:18.822Z,100844.50
2022-12-04T17:02:46.024Z,100834.00
2022-12-04T17:05:17.956Z,100828.62
2022-12-04T17:07:44.770Z,100832.22
2022-12-04T17:10:13.064Z,100829.87
2022-12-04T17:12:40.468Z,100837.75
2022-12-04T17:15:07.674Z,100823.41
2022-12-04T17:17:34.441Z,100836.38
2022-12-04T17:20:01.257Z,100832.06
2022-12-04T17:22:27.926Z,100834.69
2022-12-04T17:24:57.067Z,100830.63
2022-12-04T17:27:24.369Z,100845.72
2022-12-04T17:29:51.093Z,100847.34
2022-12-04T17:32:18.082Z,100848.75
2022-12-04T17:34:44.811Z,100853.34
2022-12-04T17:37:11.601Z,100865.00
2022-12-04T17:39:38.312Z,100866.25
2022-12-04T17:42:05.019Z,100852.97
2022-12-04T17:44:31.695Z,100854.63
2022-12-04T17:46:58.551Z,100856.00
2022-12-04T17:49:25.456Z,100866.03
2022-12-04T17:51:52.208Z,100869.16
2022-12-04T17:54:19.107Z,100865.22
2022-12-04T17:56:50.322Z,100857.81
2022-12-04T17:59:19.086Z,100859.28
2022-12-04T18:01:45.864Z,100851.91
2022-12-04T18:04:12.621Z,100845.41
2022-12-04T18:06:40.829Z,100855.19
2022-12-04T18:09:08.377Z,100856.88
2022-12-04T18:11:36.020Z,100846.28
2022-12-04T18:14:11.523Z,100855.41
2022-12-04T18:16:39.984Z,100859.78
2022-12-04T18:19:07.056Z,100855.50
2022-12-04T18:21:34.663Z,100858.22
2022-12-04T18:24:03.102Z,100856.91
2022-12-04T18:26:33.822Z,100858.31
2022-12-04T18:29:00.596Z,100857.34
2022-12-04T18:31:27.367Z,100862.62
2022-12-04T18:33:54.204Z,100859.31
2022-12-04T18:36:22.339Z,100868.41
2022-12-04T18:38:53.884Z,100870.50
2022-12-04T18:41:20.671Z,100865.75
2022-12-04T18:43:47.523Z,100873.94
2022-12-04T18:46:15.441Z,100878.56
2022-12-04T18:48:42.554Z,100873.06
2022-12-04T18:51:15.519Z,100866.53
2022-12-04T18:53:42.812Z,100859.91
2022-12-04T18:56:09.853Z,100866.75
2022-12-04T18:58:36.608Z,100861.44
2022-12-04T19:01:07.220Z,100865.22
2022-12-04T19:03:34.564Z,100858.72
2022-12-04T19:06:01.436Z,100859.75
2022-12-04T19:08:33.115Z,100862.31
2022-12-04T19:11:07.119Z,100865.84
2022-12-04T19:13:34.465Z,100870.69
2022-12-04T19:16:01.349Z,100875.69
2022-12-04T19:18:28.547Z,100877.75
2022-12-04T19:20:55.963Z,100877.59
2022-12-04T19:23:22.970Z,100882.84
2022-12-04T19:25:56.529Z,100879.31
2022-12-04T19:28:24.051Z,100883.78
2022-12-04T19:30:51.461Z,100884.87
2022-12-04T19:33:18.209Z,100892.97
2022-12-04T19:35:55.738Z,100887.75
2022-12-04T19:38:22.536Z,100895.53
2022-12-04T19:40:49.240Z,100893.81
2022-12-04T19:43:15.991Z,100897.47
2022-12-04T19:45:47.979Z,100896.25
2022-12-04T19:48:14.682Z,100893.97
2022-12-04T19:50:41.452Z,100895.50
2022-12-04T19:53:08.171Z,100910.00
2022-12-04T19:55:35.997Z,100907.63
2022-12-04T19:58:02.891Z,100912.13
2022-12-04T20:00:29.627Z,100914.19
2022-12-04T20:02:56.484Z,100914.87
2022-12-04T20:05:23.268Z,100918.34
2022-12-04T20:07:50.038Z,100920.31
2022-12-04T20:10:17.275Z,100916.19
2022-12-04T20:12:44.043Z,100912.75
2022-12-04T20:15:10.889Z,100916.00
2022-12-04T20:17:37.869Z,100906.53
2022-12-04T20:20:05.054Z,100912.38
2022-12-04T20:22:31.935Z,100909.62
2022-12-04T20:24:58.631Z,100901.00
2022-12-04T20:27:31.639Z,100915.44
2022-12-04T20:29:58.564Z,100905.84
2022-12-04T20:32:25.511Z,100904.25
2022-12-04T20:34:52.414Z,100902.72
2022-12-04T20:37:19.195Z,100898.37
2022-12-04T20:39:45.937Z,100907.03
2022-12-04T20:42:12.679Z,100902.91
2022-12-04T20:44:39.457Z,100900.91
2022-12-04T20:47:06.206Z,100903.75
2022-12-04T20:49:33.057Z,100901.94
2022-12-04T20:51:59.781Z,100896.34
2022-12-04T20:54:26.639Z,100901.19
2022-12-04T20:56:53.740Z,100907.38
2022-12-04T20:59:22.152Z,100914.41
2022-12-04T21:01:49.452Z,100912.19
2022-12-04T21:04:18.146Z,100906.84
2022-12-04T21:06:45.437Z,100905.47
2022-12-04T21:09:13.602Z,100901.72
2022-12-04T21:11:44.759Z,100907.66
2022-12-04T21:14:31.657Z,100911.09
2022-12-04T21:16:58.737Z,100904.28
2022-12-04T21:19:26.321Z,100906.53
2022-12-04T21:21:53.431Z,100903.69
2022-12-04T21:24:21.361Z,100902.34
2022-12-04T21:26:48.147Z,100896.12
2022-12-04T21:29:15.577Z,100901.03
2022-12-04T21:31:42.851Z,100901.19
2022-12-04T21:34:10.980Z,100901.78
2022-12-04T21:36:37.733Z,100898.34
2022-12-04T21:39:04.971Z,100906.47
2022-12-04T21:41:50.442Z,100900.50
2022-12-04T21:44:18.600Z,100898.47
2022-12-04T21:46:45.749Z,100919.31
2022-12-04T21:49:13.919Z,100927.97
2022-12-04T21:51:56.852Z,100929.47
2022-12-04T21:54:24.949Z,100931.50
2022-12-04T21:56:51.867Z,100924.81
2022-12-04T21:59:18.629Z,100934.19
2022-12-04T22:01:45.516Z,100927.94
2022-12-04T22:04:12.803Z,100933.59
2022-12-04T22:06:39.698Z,100930.34
2022-12-04T22:09:07.397Z,100933.53
2022-12-04T22:11:34.179Z,100927.31
2022-12-04T22:14:01.104Z,100932.78
2022-12-04T22:16:30.502Z,100933.97
2022-12-04T22:18:58.467Z,100932.94
2022-12-04T22:21:25.951Z,100928.53
2022-12-04T22:24:03.140Z,100929.22
2022-12-04T22:26:30.423Z,100923.41
2022-12-04T22:28:57.827Z,100920.38
2022-12-04T22:31:26.096Z,100921.78
2022-12-04T22:33:54.024Z,100914.19
2022-12-04T22:36:23.005Z,100918.00
2022-12-04T22:39:08.806Z,100914.47
2022-12-04T22:41:36.443Z,100915.59
2022-12-04T22:44:03.197Z,100914.69
2022-12-04T22:46:30.206Z,100910.66
2022-12-04T22:48:58.395Z,100914.75
2022-12-04T22:51:25.241Z,100906.72
2022-12-04T22:53:53.172Z,100900.00
2022-12-04T22:56:21.366Z,100901.25
2022-12-04T22:58:48.054Z,100903.59
2022-12-04T23:01:16.845Z,100895.34
2022-12-04T23:03:43.580Z,100894.56
2022-12-04T23:06:10.448Z,100897.56
2022-12-04T23:08:38.083Z,100903.53
2022-12-04T23:11:09.070Z,100911.28
2022-12-04T23:13:36.148Z,100902.25
2022-12-04T23:16:07.913Z,100898.44
2022-12-04T23:18:36.634Z,100896.09
2022-12-04T23:21:07.865Z,100888.88
2022-12-04T23:23:35.516Z,100885.81
2022-12-04T23:26:03.658Z,100895.75
2022-12-04T23:28:30.479Z,100881.84
2022-12-04T23:30:57.512Z,100885.91
2022-12-04T23:33:24.439Z,100887.44
2022-12-04T23:35:52.459Z,100886.72
2022-12-04T23:38:19.731Z,100889.03
2022-12-04T23:40:46.548Z,100881.94
2022-12-04T23:43:13.474Z,100880.69
2022-12-04T23:45:40.313Z,100879.91
2022-12-04T23:48:07.164Z,100876.44
2022-12-04T23:50:33.947Z,100877.44
2022-12-04T23:53:01.011Z,100876.31
2022-12-04T23:55:33.821Z,100880.25
2022-12-04T23:58:01.215Z,100887.41
